Time;durP1;ratioP1;P1;durP2;ratioP2;P2;SDS_P1;SDS_P2;PMS_P1;PMS_P2;Temp;Humidity;BMP_temperature;BMP_pressure;BME280_temperature;BME280_humidity;BME280_pressure;Samples;Min_cycle;Max_cycle;Signal;HPM_P1;HPM_P2
2022/03/31 00:00:49;;;;;;;9.02;8.13;;;19.70;59.40;;;;;;4996702;28;20069;-13
2022/03/31 00:03:16;;;;;;;8.52;7.72;;;19.60;59.50;;;;;;4990891;28;20074;-13
2022/03/31 00:05:42;;;;;;;8.20;7.47;;;19.60;59.50;;;;;;4997376;28;20124;-14
2022/03/31 00:08:09;;;;;;;7.90;7.20;;;19.60;59.40;;;;;;4994810;28;20122;-14
2022/03/31 00:10:40;;;;;;;8.25;7.55;;;19.70;59.40;;;;;;4996239;28;20062;-14
2022/03/31 00:13:07;;;;;;;7.97;7.28;;;19.60;59.60;;;;;;4997501;28;20054;-14
2022/03/31 00:15:33;;;;;;;8.95;8.07;;;19.60;59.60;;;;;;4996412;28;20137;-13
2022/03/31 00:17:59;;;;;;;8.80;8.00;;;19.60;59.60;;;;;;4979965;28;20053;-12
2022/03/31 00:20:26;;;;;;;8.23;7.50;;;19.60;59.60;;;;;;4997311;28;20054;-14
2022/03/31 00:22:52;;;;;;;8.23;7.63;;;19.60;59.60;;;;;;4997440;28;20035;-13
2022/03/31 00:25:17;;;;;;;7.50;6.88;;;19.60;59.60;;;;;;4986966;28;20050;-14
2022/03/31 00:27:43;;;;;;;7.82;7.20;;;19.60;59.60;;;;;;4995874;28;20043;-13
2022/03/31 00:30:10;;;;;;;8.43;7.63;;;19.60;59.60;;;;;;4996728;28;20050;-13
2022/03/31 00:32:36;;;;;;;8.38;7.68;;;19.60;59.60;;;;;;4996420;28;20133;-14
2022/03/31 00:35:02;;;;;;;9.20;8.40;;;19.50;59.70;;;;;;4984263;28;20074;-14
2022/03/31 00:37:28;;;;;;;7.80;7.10;;;19.50;59.70;;;;;;4986223;28;20133;-16
2022/03/31 00:39:54;;;;;;;7.78;7.18;;;19.60;59.60;;;;;;4978720;28;20049;-17
2022/03/31 00:42:21;;;;;;;8.00;7.20;;;19.50;59.70;;;;;;4978229;28;20062;-14
2022/03/31 00:44:46;;;;;;;7.35;6.75;;;19.50;59.60;;;;;;4993853;28;20050;-13
2022/03/31 00:47:12;;;;;;;6.88;6.32;;;19.50;60.30;;;;;;4994886;28;20042;-14
2022/03/31 00:49:38;;;;;;;6.82;6.25;;;19.50;59.60;;;;;;4993344;28;20050;-13
2022/03/31 00:52:04;;;;;;;7.40;6.70;;;19.50;59.60;;;;;;4994305;28;20051;-13
2022/03/31 00:54:31;;;;;;;7.38;6.68;;;19.50;59.40;;;;;;4996933;28;20050;-13
2022/03/31 00:56:57;;;;;;;7.63;6.93;;;19.50;59.40;;;;;;4996121;28;20042;-13
2022/03/31 00:59:22;;;;;;;7.53;6.72;;;19.50;59.40;;;;;;4994303;28;20057;-14
2022/03/31 01:01:48;;;;;;;7.03;6.43;;;19.50;59.50;;;;;;4995220;28;20057;-14
2022/03/31 01:04:13;;;;;;;7.35;6.75;;;19.50;59.50;;;;;;4997136;28;20052;-13
2022/03/31 01:06:45;;;;;;;7.95;7.25;;;19.50;59.60;;;;;;4989905;28;20053;-14
2022/03/31 01:09:13;;;;;;;8.13;7.32;;;19.50;59.70;;;;;;4984977;28;20104;-14
2022/03/31 01:11:39;;;;;;;6.80;6.30;;;19.50;59.70;;;;;;4996618;28;20042;-14
2022/03/31 01:14:06;;;;;;;7.13;6.63;;;19.50;59.50;;;;;;4995938;28;20438;-13
2022/03/31 01:16:32;;;;;;;6.82;6.22;;;19.50;59.50;;;;;;4993965;28;20116;-13
2022/03/31 01:19:01;;;;;;;7.60;7.00;;;19.50;59.50;;;;;;4977322;28;20047;-14
2022/03/31 01:21:27;;;;;;;6.70;6.20;;;19.50;59.60;;;;;;4977545;28;20476;-13
2022/03/31 01:23:54;;;;;;;6.50;6.00;;;19.40;59.60;;;;;;4985949;28;20472;-14
2022/03/31 01:26:20;;;;;;;6.78;6.28;;;19.40;59.50;;;;;;4995261;28;20046;-13
2022/03/31 01:28:46;;;;;;;6.40;5.90;;;19.40;59.70;;;;;;4995800;28;20077;-13
2022/03/31 01:31:11;;;;;;;6.90;6.30;;;19.50;60.20;;;;;;4994428;28;20050;-14
2022/03/31 01:33:37;;;;;;;7.40;6.80;;;19.50;59.50;;;;;;4996262;28;20058;-14
2022/03/31 01:36:04;;;;;;;7.40;6.80;;;19.40;59.60;;;;;;4991851;28;20325;-13
2022/03/31 01:38:30;;;;;;;7.03;6.53;;;19.40;59.60;;;;;;4994150;28;20058;-14
2022/03/31 01:40:56;;;;;;;6.93;6.43;;;19.40;59.50;;;;;;4994785;28;20593;-14
2022/03/31 01:43:21;;;;;;;6.38;5.88;;;19.40;59.60;;;;;;4992485;28;20054;-13
2022/03/31 01:45:49;;;;;;;6.28;5.78;;;19.40;60.20;;;;;;4994509;28;20066;-15
2022/03/31 01:48:16;;;;;;;6.70;6.20;;;19.50;59.30;;;;;;4996595;28;20069;-13
2022/03/31 01:50:42;;;;;;;6.28;5.85;;;19.50;59.30;;;;;;4996725;28;20561;-14
2022/03/31 01:53:07;;;;;;;6.88;6.18;;;19.50;59.40;;;;;;4994438;28;20149;-15
2022/03/31 01:55:33;;;;;;;6.40;5.88;;;19.40;59.50;;;;;;4992734;28;20473;-13
2022/03/31 01:57:59;;;;;;;6.75;6.15;;;19.40;59.50;;;;;;4994885;28;20050;-13
2022/03/31 02:00:24;;;;;;;6.45;5.95;;;19.40;59.60;;;;;;4994871;28;20069;-14
2022/03/31 02:02:50;;;;;;;5.95;5.55;;;19.40;59.50;;;;;;4988136;28;20042;-13
2022/03/31 02:05:15;;;;;;;5.72;5.32;;;19.30;59.50;;;;;;4995641;28;20117;-14
2022/03/31 02:07:41;;;;;;;5.50;5.18;;;19.30;59.50;;;;;;4993466;28;20054;-13
2022/03/31 02:10:12;;;;;;;6.10;5.70;;;19.30;59.50;;;;;;4983125;28;20050;-14
2022/03/31 02:12:39;;;;;;;5.10;4.80;;;19.30;59.30;;;;;;4980276;28;20468;-14
2022/03/31 02:15:05;;;;;;;5.30;5.00;;;19.30;59.30;;;;;;4994633;28;20046;-13
2022/03/31 02:17:30;;;;;;;6.03;5.55;;;19.30;59.30;;;;;;4995445;28;20188;-14
2022/03/31 02:19:56;;;;;;;6.10;5.70;;;19.30;59.40;;;;;;4994517;28;20081;-13
2022/03/31 02:22:22;;;;;;;5.40;5.10;;;19.30;59.40;;;;;;4995744;28;20061;-14
2022/03/31 02:24:48;;;;;;;5.45;5.05;;;19.20;59.50;;;;;;4995355;28;20038;-14
2022/03/31 02:27:13;;;;;;;5.45;5.13;;;19.20;59.40;;;;;;4995067;28;20089;-13
2022/03/31 02:29:39;;;;;;;5.18;4.88;;;19.20;59.50;;;;;;4994933;28;20042;-14
2022/03/31 02:32:06;;;;;;;5.60;5.22;;;19.20;59.40;;;;;;4995279;28;20058;-14
2022/03/31 02:34:31;;;;;;;5.38;4.97;;;19.20;59.40;;;;;;4995959;28;20397;-14
2022/03/31 02:36:57;;;;;;;5.60;5.20;;;19.30;59.30;;;;;;4994480;28;20112;-14
2022/03/31 02:39:22;;;;;;;5.57;5.18;;;19.20;59.40;;;;;;4995871;28;20046;-15
2022/03/31 02:41:48;;;;;;;5.40;5.07;;;19.20;59.30;;;;;;4995027;28;20049;-14
2022/03/31 02:44:15;;;;;;;5.40;5.00;;;19.20;59.40;;;;;;4995316;28;20050;-14
2022/03/31 02:46:41;;;;;;;5.15;4.85;;;19.20;59.30;;;;;;4995729;28;20042;-15
2022/03/31 02:49:07;;;;;;;5.97;5.57;;;19.20;59.40;;;;;;4994592;28;20103;-15
2022/03/31 02:51:32;;;;;;;4.97;4.68;;;19.20;59.40;;;;;;4997870;28;20065;-14
2022/03/31 02:56:42;;;;;;;;;;;19.20;59.50;;;;;;4998034;28;20514;-15
2022/03/31 02:59:08;;;;;;;5.43;5.05;;;19.20;59.40;;;;;;4997618;28;20361;-14
2022/03/31 03:01:33;;;;;;;5.60;5.20;;;19.20;59.50;;;;;;4998893;28;20507;-14
2022/03/31 03:03:59;;;;;;;5.40;5.10;;;19.20;59.50;;;;;;4997850;28;20069;-15
2022/03/31 03:06:25;;;;;;;5.50;5.13;;;19.20;59.60;;;;;;4998706;28;20051;-14
2022/03/31 03:08:50;;;;;;;5.00;4.70;;;19.10;59.60;;;;;;4998769;28;20046;-14
2022/03/31 03:11:17;;;;;;;5.10;4.80;;;19.20;59.40;;;;;;4998677;28;20114;-14
2022/03/31 03:13:44;;;;;;;4.60;4.30;;;19.20;59.40;;;;;;4997925;28;20411;-14
2022/03/31 03:16:10;;;;;;;5.18;4.82;;;19.10;59.60;;;;;;4998304;28;20042;-14
2022/03/31 03:18:36;;;;;;;5.68;5.28;;;19.20;59.70;;;;;;4999278;28;20096;-15
2022/03/31 03:21:02;;;;;;;5.03;4.72;;;19.20;59.50;;;;;;4998358;28;20395;-14
2022/03/31 03:23:28;;;;;;;4.70;4.40;;;19.10;59.40;;;;;;4985737;28;20051;-15
2022/03/31 03:25:53;;;;;;;4.97;4.65;;;19.20;59.50;;;;;;4983013;28;20537;-14
2022/03/31 03:28:20;;;;;;;4.53;4.32;;;19.20;59.50;;;;;;4993716;28;20090;-14
2022/03/31 03:30:46;;;;;;;4.70;4.40;;;19.10;59.50;;;;;;4989346;28;20043;-15
2022/03/31 03:33:11;;;;;;;4.40;4.13;;;19.10;59.60;;;;;;4991947;28;20077;-14
2022/03/31 03:35:37;;;;;;;4.57;4.28;;;19.10;59.60;;;;;;4987910;28;20500;-14
2022/03/31 03:38:02;;;;;;;4.35;4.15;;;19.10;59.60;;;;;;4986235;28;20104;-16
2022/03/31 03:40:29;;;;;;;4.85;4.55;;;19.10;59.60;;;;;;4991186;28;20039;-14
2022/03/31 03:42:55;;;;;;;4.20;4.00;;;19.00;59.60;;;;;;4986003;28;20046;-14
2022/03/31 03:45:20;;;;;;;4.47;4.18;;;19.00;59.80;;;;;;4992501;28;20105;-14
2022/03/31 03:47:48;;;;;;;4.50;4.30;;;19.10;59.60;;;;;;4991201;28;20042;-13
2022/03/31 03:50:14;;;;;;;4.03;3.83;;;19.10;59.60;;;;;;4990446;28;20553;-15
2022/03/31 03:52:39;;;;;;;3.80;3.60;;;19.10;59.60;;;;;;4989320;28;20447;-15
2022/03/31 03:55:05;;;;;;;4.57;4.28;;;19.10;59.60;;;;;;4988688;28;20042;-14
2022/03/31 03:57:31;;;;;;;4.47;4.18;;;19.00;59.60;;;;;;4994269;28;20061;-15
2022/03/31 03:59:56;;;;;;;3.97;3.78;;;19.00;59.60;;;;;;4992406;28;20189;-15
2022/03/31 04:02:22;;;;;;;4.00;3.75;;;19.00;59.60;;;;;;4995599;28;20049;-14
2022/03/31 04:04:48;;;;;;;3.50;3.30;;;19.00;59.60;;;;;;4998157;28;20026;-14
2022/03/31 04:07:13;;;;;;;4.07;3.88;;;19.10;59.60;;;;;;4997634;28;20483;-15
2022/03/31 04:09:39;;;;;;;3.67;3.47;;;19.10;59.70;;;;;;4995332;28;20530;-13
2022/03/31 04:12:05;;;;;;;3.83;3.63;;;19.00;59.60;;;;;;4997823;28;20042;-14
2022/03/31 04:14:30;;;;;;;4.00;3.80;;;19.00;59.60;;;;;;4997538;28;20072;-15
2022/03/31 04:16:56;;;;;;;4.07;3.78;;;19.10;59.70;;;;;;4978875;28;20495;-16
2022/03/31 04:19:22;;;;;;;3.70;3.50;;;19.00;59.70;;;;;;4978419;28;20054;-17
2022/03/31 04:21:47;;;;;;;4.07;3.50;;;19.00;59.70;;;;;;4979460;28;20424;-17
2022/03/31 04:24:13;;;;;;;3.40;3.20;;;19.00;59.60;;;;;;4978393;28;20074;-15
2022/03/31 04:26:39;;;;;;;3.78;3.58;;;19.00;59.80;;;;;;4989546;28;20074;-16
2022/03/31 04:29:08;;;;;;;3.92;3.72;;;19.00;59.70;;;;;;4983797;28;20599;-14
2022/03/31 04:31:40;;;;;;;3.92;3.72;;;19.00;59.60;;;;;;4978505;28;20162;-14
2022/03/31 04:34:08;;;;;;;3.67;3.47;;;19.00;59.70;;;;;;4988258;28;20077;-14
2022/03/31 04:36:34;;;;;;;3.97;3.67;;;19.00;59.70;;;;;;4988936;28;20407;-13
2022/03/31 04:38:59;;;;;;;3.53;3.33;;;19.00;59.70;;;;;;4997070;28;20065;-14
2022/03/31 04:41:25;;;;;;;3.40;3.22;;;19.00;59.60;;;;;;4997906;28;20129;-12
2022/03/31 04:43:51;;;;;;;3.50;3.30;;;19.00;59.60;;;;;;4994323;28;20049;-13
2022/03/31 04:46:18;;;;;;;3.58;3.38;;;19.00;59.60;;;;;;4985441;28;20072;-13
2022/03/31 04:48:44;;;;;;;3.53;3.33;;;18.90;59.80;;;;;;4984977;28;20042;-13
2022/03/31 04:51:10;;;;;;;3.85;3.65;;;19.00;59.60;;;;;;4994948;28;20177;-13
2022/03/31 04:53:35;;;;;;;3.67;3.47;;;19.00;59.60;;;;;;4997317;28;20042;-13
2022/03/31 04:56:01;;;;;;;3.50;3.30;;;19.00;59.70;;;;;;4987786;28;20393;-14
2022/03/31 04:58:26;;;;;;;3.70;3.50;;;19.00;59.50;;;;;;4997600;28;20038;-13
2022/03/31 05:00:52;;;;;;;3.92;3.72;;;19.10;59.60;;;;;;4991957;28;20039;-13
2022/03/31 05:03:18;;;;;;;3.53;3.33;;;19.00;59.60;;;;;;4979833;28;20062;-13
2022/03/31 05:05:43;;;;;;;3.97;3.67;;;19.00;59.50;;;;;;4993341;28;20042;-13
2022/03/31 05:08:10;;;;;;;3.38;3.17;;;19.00;59.70;;;;;;4979670;28;20507;-13
2022/03/31 05:10:35;;;;;;;4.57;4.28;;;19.10;60.30;;;;;;4990946;28;20097;-13
2022/03/31 05:13:01;;;;;;;4.35;3.90;;;19.10;61.60;;;;;;4995961;28;20054;-14
2022/03/31 05:15:27;;;;;;;4.30;4.03;;;19.10;61.90;;;;;;4996226;28;20129;-14
2022/03/31 05:17:52;;;;;;;4.05;3.85;;;19.00;62.00;;;;;;4646074;28;10000366;-13
2022/03/31 05:20:18;;;;;;;5.25;3.60;;;19.00;61.30;;;;;;4993048;28;20054;-14
2022/03/31 05:22:44;;;;;;;4.13;3.88;;;19.00;61.50;;;;;;4999997;28;20086;-14
2022/03/31 05:25:10;;;;;;;3.85;3.65;;;19.00;61.50;;;;;;4987619;28;20381;-14
2022/03/31 05:27:47;;;;;;;7.93;4.28;;;19.00;61.30;;;;;;4988865;28;20104;-14
2022/03/31 05:30:18;;;;;;;4.07;3.67;;;19.00;61.30;;;;;;4983451;28;20482;-14
2022/03/31 05:32:44;;;;;;;5.68;3.65;;;19.10;61.70;;;;;;4991871;28;20182;-14
2022/03/31 05:35:11;;;;;;;10.68;3.95;;;19.10;61.90;;;;;;4987471;28;20590;-13
2022/03/31 05:37:36;;;;;;;3.53;3.33;;;19.10;62.30;;;;;;4991916;28;20050;-14
2022/03/31 05:40:06;;;;;;;3.80;3.38;;;19.00;62.20;;;;;;4991990;28;20038;-13
2022/03/31 05:42:32;;;;;;;3.92;3.63;;;19.00;61.80;;;;;;4995171;28;20046;-14
2022/03/31 05:45:01;;;;;;;3.78;3.58;;;19.00;61.80;;;;;;4994005;28;20411;-15
2022/03/31 05:47:27;;;;;;;5.72;3.67;;;19.10;61.90;;;;;;4994907;28;20039;-13
2022/03/31 05:49:53;;;;;;;3.78;3.47;;;19.20;61.80;;;;;;4995586;28;20553;-14
2022/03/31 05:52:19;;;;;;;3.85;3.55;;;19.10;61.60;;;;;;4995802;28;20066;-14
2022/03/31 05:54:44;;;;;;;3.97;3.78;;;19.10;61.90;;;;;;4996266;28;20034;-14
2022/03/31 05:57:10;;;;;;;5.45;3.67;;;19.10;62.00;;;;;;4977967;28;20047;-14
2022/03/31 05:59:35;;;;;;;4.10;3.67;;;19.20;61.90;;;;;;4977147;28;20070;-13
2022/03/31 06:02:02;;;;;;;4.70;3.50;;;19.20;61.80;;;;;;4976335;28;20470;-15
2022/03/31 06:04:28;;;;;;;4.38;4.03;;;19.10;61.80;;;;;;4984507;28;20054;-15
2022/03/31 06:06:53;;;;;;;4.20;3.70;;;19.20;61.70;;;;;;4996294;28;20042;-16
2022/03/31 06:09:19;;;;;;;8.73;3.50;;;19.10;61.80;;;;;;4995493;28;20050;-16
2022/03/31 06:11:44;;;;;;;7.38;3.22;;;19.10;61.70;;;;;;4983223;28;20526;-16
2022/03/31 06:14:11;;;;;;;3.42;3.22;;;19.10;61.70;;;;;;4976323;28;20049;-15
2022/03/31 06:16:37;;;;;;;3.75;3.50;;;19.00;61.60;;;;;;4976821;28;20039;-16
2022/03/31 06:19:03;;;;;;;5.45;3.55;;;19.10;61.60;;;;;;4979035;28;20107;-15
2022/03/31 06:21:28;;;;;;;3.80;3.50;;;19.00;61.60;;;;;;4986930;28;20050;-16
2022/03/31 06:23:54;;;;;;;3.88;3.00;;;19.10;61.50;;;;;;4986635;28;20062;-13
2022/03/31 06:26:19;;;;;;;3.67;3.47;;;19.10;61.30;;;;;;4991458;28;20097;-13
2022/03/31 06:28:45;;;;;;;3.60;3.30;;;19.10;61.40;;;;;;4980351;28;20054;-13
2022/03/31 06:31:10;;;;;;;3.78;3.47;;;19.10;61.20;;;;;;4989369;28;20424;-13
2022/03/31 06:33:37;;;;;;;5.63;3.72;;;19.10;61.30;;;;;;4985678;28;20057;-13
2022/03/31 06:36:03;;;;;;;3.33;3.13;;;19.10;61.30;;;;;;4990153;28;20398;-13
2022/03/31 06:38:29;;;;;;;4.88;3.10;;;19.10;61.10;;;;;;4985553;28;20038;-13
2022/03/31 06:41:06;;;;;;;3.70;3.45;;;19.10;61.20;;;;;;4989095;28;20038;-14
2022/03/31 06:43:36;;;;;;;3.40;3.20;;;19.10;61.40;;;;;;4974939;28;20051;-13
2022/03/31 06:46:02;;;;;;;3.22;3.03;;;19.10;61.20;;;;;;4975968;28;20043;-13
2022/03/31 06:48:29;;;;;;;8.30;3.90;;;19.10;61.10;;;;;;4976502;28;20043;-13
2022/03/31 06:50:55;;;;;;;5.20;3.03;;;19.00;61.10;;;;;;4976416;28;20038;-13
2022/03/31 06:53:21;;;;;;;3.22;3.03;;;19.10;61.10;;;;;;4974647;28;20572;-13
2022/03/31 06:55:47;;;;;;;7.43;3.25;;;19.10;61.10;;;;;;4987472;28;20458;-12
2022/03/31 06:58:12;;;;;;;3.22;3.03;;;19.10;60.90;;;;;;4994464;28;20042;-12
2022/03/31 07:00:38;;;;;;;2.90;2.70;;;19.10;60.90;;;;;;4995899;28;20062;-14
2022/03/31 07:03:03;;;;;;;3.72;3.53;;;19.00;60.70;;;;;;4995300;28;20576;-13
2022/03/31 07:05:29;;;;;;;3.25;3.05;;;19.00;61.00;;;;;;4995784;28;20046;-12
2022/03/31 07:07:55;;;;;;;3.25;3.05;;;19.00;60.90;;;;;;4995382;28;20050;-13
2022/03/31 07:10:21;;;;;;;2.80;2.60;;;19.10;60.70;;;;;;4995151;28;20038;-12
2022/03/31 07:12:47;;;;;;;2.95;2.75;;;19.10;60.90;;;;;;4995746;28;20046;-12
2022/03/31 07:15:13;;;;;;;2.92;2.78;;;19.10;60.80;;;;;;4994439;28;20050;-12
2022/03/31 07:17:39;;;;;;;3.60;2.88;;;18.90;61.00;;;;;;4995800;28;20043;-13
2022/03/31 07:20:05;;;;;;;3.22;3.03;;;19.00;60.90;;;;;;4995021;28;20073;-13
2022/03/31 07:22:32;;;;;;;2.83;2.63;;;19.00;60.80;;;;;;4994814;28;20085;-13
2022/03/31 07:24:58;;;;;;;2.60;2.50;;;19.00;60.70;;;;;;4995437;28;20039;-12
2022/03/31 07:27:23;;;;;;;4.15;2.72;;;19.00;60.70;;;;;;4995012;28;20561;-12
2022/03/31 07:29:49;;;;;;;2.72;2.58;;;19.00;60.70;;;;;;4995527;28;20403;-13
2022/03/31 07:32:15;;;;;;;2.67;2.50;;;19.00;60.60;;;;;;4995139;28;20491;-15
2022/03/31 07:34:40;;;;;;;2.92;2.83;;;19.00;60.70;;;;;;4995528;28;20109;-14
2022/03/31 07:37:06;;;;;;;3.53;2.75;;;19.00;60.70;;;;;;4994881;28;20205;-15
2022/03/31 07:39:34;;;;;;;2.58;2.47;;;18.90;60.60;;;;;;4998859;28;20045;-14
2022/03/31 07:42:00;;;;;;;2.88;2.67;;;19.00;60.70;;;;;;4998993;28;20396;-15
2022/03/31 07:44:26;;;;;;;2.63;2.53;;;19.00;60.50;;;;;;4998344;28;20481;-14
2022/03/31 07:46:51;;;;;;;2.40;2.20;;;19.10;60.50;;;;;;4998927;28;20050;-15
2022/03/31 07:49:18;;;;;;;2.88;2.65;;;19.00;60.40;;;;;;4998310;28;20478;-14
2022/03/31 07:51:43;;;;;;;2.45;2.35;;;19.00;60.50;;;;;;4998083;28;20073;-14
2022/03/31 07:54:09;;;;;;;3.17;2.50;;;18.90;60.40;;;;;;4998041;28;20046;-15
2022/03/31 07:56:35;;;;;;;2.40;2.30;;;18.90;60.50;;;;;;4998542;28;20042;-14
2022/03/31 07:59:01;;;;;;;3.10;2.90;;;18.90;60.40;;;;;;4998067;28;20136;-15
2022/03/31 08:01:27;;;;;;;2.30;2.20;;;18.90;60.40;;;;;;4998048;28;20085;-15
2022/03/31 08:03:53;;;;;;;2.15;2.05;;;18.90;60.60;;;;;;4998062;28;20069;-14
2022/03/31 08:06:19;;;;;;;2.42;2.33;;;18.90;60.40;;;;;;4997999;28;20050;-14
2022/03/31 08:08:44;;;;;;;2.13;2.03;;;18.90;60.20;;;;;;4998135;28;20519;-13
2022/03/31 08:11:10;;;;;;;2.10;2.00;;;18.90;60.10;;;;;;4997926;28;20405;-13
2022/03/31 08:13:36;;;;;;;2.15;2.05;;;19.00;60.20;;;;;;4997835;28;20042;-14
2022/03/31 08:16:02;;;;;;;2.25;2.15;;;19.00;60.10;;;;;;4998299;28;20097;-13
2022/03/31 08:18:33;;;;;;;2.30;2.20;;;18.90;60.10;;;;;;4997759;28;20054;-13
2022/03/31 08:21:00;;;;;;;2.20;2.00;;;18.90;60.10;;;;;;4998105;28;20068;-14
2022/03/31 08:23:26;;;;;;;2.15;2.05;;;18.90;60.20;;;;;;4997175;28;20050;-13
2022/03/31 08:25:52;;;;;;;1.90;1.80;;;18.90;60.10;;;;;;4998315;28;20054;-14
2022/03/31 08:28:17;;;;;;;2.00;1.90;;;18.90;60.20;;;;;;4997375;28;20050;-13
2022/03/31 08:30:43;;;;;;;1.90;1.80;;;18.90;60.20;;;;;;4998018;28;20138;-13
2022/03/31 08:33:09;;;;;;;2.10;2.00;;;18.90;60.10;;;;;;4996831;28;20538;-14
2022/03/31 08:35:34;;;;;;;2.00;1.90;;;18.90;60.10;;;;;;4997964;28;20492;-13
2022/03/31 08:38:00;;;;;;;2.10;2.00;;;18.90;59.80;;;;;;4981269;28;20050;-13
2022/03/31 08:40:26;;;;;;;2.17;2.00;;;19.00;59.80;;;;;;4978077;28;20513;-14
2022/03/31 08:42:52;;;;;;;3.38;2.15;;;18.90;59.80;;;;;;4978552;28;20503;-13
2022/03/31 08:45:18;;;;;;;2.10;1.83;;;18.90;60.00;;;;;;4974883;28;20101;-13
2022/03/31 08:47:44;;;;;;;5.25;2.00;;;18.90;60.00;;;;;;4978376;28;20042;-14
2022/03/31 08:50:11;;;;;;;2.17;2.08;;;18.90;59.90;;;;;;4977385;28;20097;-14
2022/03/31 08:52:36;;;;;;;1.90;1.80;;;18.90;59.90;;;;;;4992822;28;20054;-13
2022/03/31 08:55:02;;;;;;;2.00;1.90;;;18.90;59.80;;;;;;4997190;28;20039;-14
2022/03/31 08:57:46;;;;;;;1.88;1.77;;;18.90;59.80;;;;;;4996296;28;20064;-14
2022/03/31 09:00:13;;;;;;;2.88;2.05;;;18.90;59.80;;;;;;4996925;28;20044;-13
2022/03/31 09:02:39;;;;;;;1.95;1.85;;;18.90;59.80;;;;;;4997444;28;20045;-13
2022/03/31 09:05:11;;;;;;;1.92;1.83;;;18.90;59.70;;;;;;4997363;28;20034;-13
2022/03/31 09:08:00;;;;;;;1.80;1.70;;;18.90;59.80;;;;;;4996908;28;20042;-13
2022/03/31 09:10:29;;;;;;;1.88;1.77;;;18.90;59.80;;;;;;4995236;28;20415;-13
2022/03/31 09:12:54;;;;;;;2.13;1.83;;;18.80;59.70;;;;;;4997206;28;20038;-13
2022/03/31 09:15:20;;;;;;;1.90;1.80;;;18.80;59.90;;;;;;4996659;28;20049;-13
2022/03/31 09:17:46;;;;;;;1.65;1.55;;;18.80;59.90;;;;;;4997220;28;20045;-14
2022/03/31 09:20:11;;;;;;;1.58;1.48;;;18.80;59.90;;;;;;4996410;28;20038;-13
2022/03/31 09:22:49;;;;;;;1.38;1.38;;;18.90;60.50;;;;;;4996177;28;20507;-13
2022/03/31 09:25:34;;;;;;;1.50;1.40;;;18.80;59.80;;;;;;4996468;28;20054;-13
2022/03/31 09:28:31;;;;;;;1.50;1.40;;;18.90;59.70;;;;;;4996672;28;20096;-14
2022/03/31 09:30:57;;;;;;;2.00;1.80;;;18.90;59.70;;;;;;4996338;28;20042;-13
2022/03/31 09:33:31;;;;;;;2.10;1.60;;;18.90;59.70;;;;;;4996176;28;20100;-13
2022/03/31 09:36:17;;;;;;;;;;;18.80;59.80;;;;;;4997270;28;20038;-13
2022/03/31 09:39:13;;;;;;;1.75;1.65;;;18.80;59.70;;;;;;4976647;28;19918;-14
2022/03/31 09:41:40;;;;;;;1.52;1.42;;;18.80;59.90;;;;;;4976683;28;20523;-15
2022/03/31 09:44:08;;;;;;;1.50;1.40;;;18.80;59.70;;;;;;4980706;28;20503;-15
2022/03/31 09:46:35;;;;;;;1.13;1.13;;;18.80;59.70;;;;;;4996170;28;20046;-14
2022/03/31 09:49:19;;;;;;;1.77;1.67;;;18.80;59.80;;;;;;4996784;28;20046;-15
2022/03/31 09:51:47;;;;;;;1.10;1.10;;;18.90;59.60;;;;;;4995487;28;20054;-15
2022/03/31 09:54:12;;;;;;;1.80;1.70;;;18.90;59.60;;;;;;4995933;28;20046;-15
2022/03/31 09:56:41;;;;;;;1.65;1.48;;;18.80;59.50;;;;;;4995095;28;20053;-14
2022/03/31 09:59:11;;;;;;;1.70;1.60;;;18.80;59.60;;;;;;4995939;28;20323;-14
2022/03/31 10:01:38;;;;;;;1.20;1.20;;;18.90;59.50;;;;;;4995451;28;20400;-14
2022/03/31 10:04:05;;;;;;;1.30;1.20;;;18.80;59.50;;;;;;4996564;28;20513;-14
2022/03/31 10:06:32;;;;;;;1.25;1.25;;;18.80;59.50;;;;;;4980898;28;20455;-15
2022/03/31 10:08:58;;;;;;;1.70;1.60;;;18.80;59.70;;;;;;4970087;28;20039;-16
2022/03/31 10:11:24;;;;;;;1.38;1.30;;;18.80;59.60;;;;;;4975134;28;20057;-15
2022/03/31 10:13:52;;;;;;;1.23;1.23;;;18.80;59.50;;;;;;4975620;28;20053;-15
2022/03/31 10:16:22;;;;;;;1.30;1.30;;;18.90;59.50;;;;;;4976199;28;20051;-16
2022/03/31 10:18:48;;;;;;;1.27;1.20;;;18.80;59.50;;;;;;4987717;28;20046;-16
2022/03/31 10:21:15;;;;;;;1.30;1.30;;;18.80;59.50;;;;;;4995496;28;20058;-17
2022/03/31 10:26:33;;;;;;;1.13;1.13;;;18.80;59.50;;;;;;4995647;28;20057;-14
2022/03/31 10:29:00;;;;;;;1.13;1.13;;;18.80;59.70;;;;;;4994741;28;20046;-14
2022/03/31 10:31:34;;;;;;;1.05;1.05;;;18.80;59.50;;;;;;4995490;28;20039;-13
2022/03/31 10:34:00;;;;;;;1.42;1.33;;;18.80;59.50;;;;;;4994810;28;20407;-14
2022/03/31 10:36:34;;;;;;;1.27;1.27;;;18.80;59.50;;;;;;4985944;28;20051;-15
2022/03/31 10:39:02;;;;;;;;;;;18.80;60.50;;;;;;4976766;28;20042;-14
2022/03/31 10:41:35;;;;;;;1.30;1.20;;;18.80;59.50;;;;;;4982318;28;20386;-14
2022/03/31 10:44:18;;;;;;;1.30;1.20;;;18.80;59.50;;;;;;4995340;28;20123;-14
2022/03/31 10:46:58;;;;;;;1.80;1.23;;;18.70;59.80;;;;;;4993929;28;20117;-15
2022/03/31 10:49:23;;;;;;;1.10;1.10;;;18.80;59.80;;;;;;4993742;28;20561;-13
2022/03/31 10:51:49;;;;;;;2.00;1.30;;;18.80;59.90;;;;;;4994447;28;20450;-14
2022/03/31 10:54:25;;;;;;;0.90;0.90;;;18.80;59.80;;;;;;4993656;28;20051;-16
2022/03/31 10:57:20;;;;;;;1.25;1.25;;;18.80;59.90;;;;;;4990840;28;20061;-14
2022/03/31 10:59:47;;;;;;;1.95;1.02;;;18.80;60.50;;;;;;4993313;28;20050;-14
2022/03/31 11:02:19;;;;;;;1.70;1.55;;;18.80;61.10;;;;;;4995348;28;20046;-14
2022/03/31 11:04:55;;;;;;;1.50;1.40;;;18.80;62.70;;;;;;4977040;28;20050;-13
2022/03/31 11:07:22;;;;;;;2.15;1.13;;;18.90;62.50;;;;;;4987724;28;20042;-13
2022/03/31 11:09:48;;;;;;;1.52;1.33;;;18.80;61.90;;;;;;4988619;28;20423;-13
2022/03/31 11:12:21;;;;;;;1.50;1.23;;;18.80;61.90;;;;;;5000559;28;20430;-13
2022/03/31 11:15:15;;;;;;;1.20;1.10;;;18.90;62.10;;;;;;4999544;28;20156;-13
2022/03/31 11:17:44;;;;;;;1.20;1.20;;;18.90;62.00;;;;;;4988663;28;20583;-12
2022/03/31 11:20:21;;;;;;;1.70;1.60;;;18.90;61.80;;;;;;5002290;28;20052;-13
2022/03/31 11:22:48;;;;;;;2.15;1.20;;;18.80;61.90;;;;;;5007233;28;20062;-13
2022/03/31 11:25:13;;;;;;;1.30;1.20;;;18.80;62.00;;;;;;4983975;28;20035;-14
2022/03/31 11:27:40;;;;;;;0.88;0.88;;;18.80;62.10;;;;;;4994286;28;20125;-14
2022/03/31 11:30:16;;;;;;;1.20;1.10;;;18.70;62.10;;;;;;4993154;28;20054;-17
2022/03/31 11:32:42;;;;;;;2.78;1.15;;;18.80;62.10;;;;;;4993704;28;20470;-14
2022/03/31 11:35:17;;;;;;;1.27;1.17;;;18.70;61.90;;;;;;4990136;28;20369;-14
2022/03/31 11:37:53;;;;;;;1.20;0.90;;;18.70;61.90;;;;;;4987751;28;20046;-13
2022/03/31 11:40:27;;;;;;;1.10;1.10;;;18.80;61.80;;;;;;4993360;28;20530;-15
2022/03/31 11:42:54;;;;;;;1.00;1.00;;;18.80;61.70;;;;;;4994892;28;20045;-14
2022/03/31 11:45:39;;;;;;;0.85;0.85;;;18.80;61.80;;;;;;4991518;28;20034;-13
2022/03/31 11:48:04;;;;;;;;;;;18.70;61.70;;;;;;4981545;28;20109;-14
2022/03/31 11:50:31;;;;;;;1.85;1.00;;;18.70;61.60;;;;;;4993398;28;19957;-14
2022/03/31 11:52:56;;;;;;;1.00;1.00;;;18.70;61.70;;;;;;4994258;28;20042;-14
2022/03/31 11:55:22;;;;;;;1.63;1.23;;;18.70;61.60;;;;;;4984345;28;20046;-14
2022/03/31 11:57:52;;;;;;;1.00;1.00;;;18.80;61.60;;;;;;4992479;28;20136;-13
2022/03/31 12:00:18;;;;;;;1.27;1.13;;;18.80;61.50;;;;;;4993055;28;20043;-13
2022/03/31 12:03:06;;;;;;;0.85;0.80;;;18.80;61.50;;;;;;4973749;28;20086;-14
2022/03/31 12:05:31;;;;;;;1.55;1.00;;;18.80;61.30;;;;;;4644170;28;10000120;-13
2022/03/31 12:07:58;;;;;;;0.60;0.60;;;18.80;61.10;;;;;;4997201;28;20054;-13
2022/03/31 12:10:24;;;;;;;1.35;0.80;;;18.80;61.10;;;;;;4996648;28;20034;-13
2022/03/31 12:12:52;;;;;;;0.82;0.82;;;18.90;61.00;;;;;;4993689;28;20491;-13
2022/03/31 12:15:27;;;;;;;2.17;0.70;;;18.80;60.90;;;;;;4994691;28;20038;-13
2022/03/31 12:18:06;;;;;;;0.80;0.80;;;18.90;60.80;;;;;;4994223;28;20042;-13
2022/03/31 12:20:33;;;;;;;1.35;0.68;;;18.80;60.90;;;;;;4986898;28;20042;-14
2022/03/31 12:22:59;;;;;;;0.70;0.70;;;18.80;61.70;;;;;;4995544;28;20045;-14
2022/03/31 12:25:35;;;;;;;0.80;0.80;;;18.80;60.90;;;;;;4997382;28;20384;-15
2022/03/31 12:28:08;;;;;;;1.15;0.70;;;18.80;60.90;;;;;;4991254;28;20057;-13
2022/03/31 12:30:41;;;;;;;1.40;0.88;;;18.80;60.90;;;;;;4988137;28;20042;-14
2022/03/31 12:33:17;;;;;;;1.15;1.02;;;18.80;60.90;;;;;;4997847;28;20092;-15
2022/03/31 12:35:57;;;;;;;1.75;0.93;;;18.80;61.00;;;;;;4995833;28;20081;-14
2022/03/31 12:38:33;;;;;;;1.13;0.80;;;18.80;61.10;;;;;;4985586;28;20054;-15
2022/03/31 12:40:59;;;;;;;1.58;0.70;;;18.80;61.00;;;;;;4990752;28;20129;-14
2022/03/31 12:43:25;;;;;;;0.80;0.77;;;18.80;61.00;;;;;;4977262;28;20039;-13
2022/03/31 12:45:51;;;;;;;0.80;0.70;;;18.80;60.90;;;;;;4981686;28;20053;-15
2022/03/31 12:48:16;;;;;;;1.77;0.40;;;18.80;60.90;;;;;;4995960;28;20038;-15
2022/03/31 12:50:44;;;;;;;0.85;0.60;;;18.80;60.80;;;;;;4997180;28;20050;-15
2022/03/31 12:53:09;;;;;;;0.60;0.60;;;18.80;60.80;;;;;;4995687;28;20126;-14
2022/03/31 12:55:36;;;;;;;3.08;0.80;;;18.80;60.60;;;;;;4996053;28;20493;-14